Time,TemperatureF,DewpointF,PressureIn,WindDirection,WindDirectionDegrees,WindSpeedMPH,WindSpeedGustMPH,Humidity,HourlyPrecipIn,Conditions,Clouds,dailyrainin,SoftwareType,DateUTC
2013-06-18 15:43:00,81.0,57.0,-100.00,North,350,4.0,-999.0,42,0.00,,,-99.99,,2013-06-18 20:43:00,
2013-06-18 15:52:00,83.0,58.0,-100.00,NNW,345,4.0,7.0,42,0.00,,,-99.99,,2013-06-18 20:52:00,
2013-06-18 16:02:00,80.0,57.0,-100.00,NNE,25,8.0,13.0,45,0.00,,,-99.99,,2013-06-18 21:02:00,
2013-06-18 16:11:00,80.0,57.0,-100.00,NNE,25,4.0,9.0,46,0.00,,,-99.99,,2013-06-18 21:11:00,
2013-06-18 16:23:00,81.0,60.0,-100.00,ENE,65,4.0,7.0,47,0.00,,,-99.99,,2013-06-18 21:23:00,
2013-06-18 16:33:00,85.0,60.0,-100.00,NE,55,1.0,7.0,43,0.00,,,-99.99,,2013-06-18 21:33:00,
2013-06-18 16:43:00,85.0,60.0,-100.00,NE,55,1.0,7.0,43,0.00,,,-99.99,,2013-06-18 21:43:00,
2013-06-18 16:52:00,86.0,60.0,-100.00,ENE,60,3.0,6.0,42,0.00,,,-99.99,,2013-06-18 21:52:00,
2013-06-18 17:01:00,86.0,60.0,-100.00,ENE,60,3.0,6.0,42,0.00,,,-99.99,,2013-06-18 22:01:00,
2013-06-18 17:11:00,81.0,56.0,-100.00,NNE,15,2.0,4.0,42,0.00,,,-99.99,,2013-06-18 22:11:00,
2013-06-18 17:22:00,81.0,56.0,-100.00,NNE,15,2.0,4.0,42,0.00,,,-99.99,,2013-06-18 22:22:00,
2013-06-18 17:34:00,81.0,58.0,-100.00,ENE,60,1.0,5.0,44,0.00,,,-99.99,,2013-06-18 22:34:00,
2013-06-18 17:43:00,84.0,60.0,-100.00,NE,55,2.0,7.0,44,0.00,,,-99.99,,2013-06-18 22:43:00,
2013-06-18 17:53:00,84.0,60.0,-100.00,South,180,1.0,5.0,43,0.00,,,-99.99,,2013-06-18 22:53:00,
2013-06-18 18:02:00,85.0,59.0,-100.00,NE,35,2.0,5.0,42,0.00,,,-99.99,,2013-06-18 23:02:00,
2013-06-18 18:11:00,84.0,60.0,-100.00,ENE,65,6.0,9.0,43,0.00,,,-99.99,,2013-06-18 23:11:00,
2013-06-18 18:23:00,84.0,59.0,-100.00,NE,55,4.0,7.0,42,0.00,,,-99.99,,2013-06-18 23:23:00,
2013-06-18 18:36:00,85.0,60.0,-100.00,ENE,60,1.0,6.0,43,0.00,,,-99.99,,2013-06-18 23:36:00,
2013-06-18 18:45:00,85.0,59.0,-100.00,NE,45,4.0,6.0,40,0.00,,,-99.99,,2013-06-18 23:45:00,
2013-06-18 18:53:00,82.0,57.0,-100.00,NE,45,4.0,7.0,42,0.00,,,-99.99,,2013-06-18 23:53:00,
2013-06-18 19:01:00,82.0,57.0,-100.00,NE,45,4.0,7.0,42,0.00,,,-99.99,,2013-06-19 00:01:00,
2013-06-18 19:11:00,81.0,57.0,-100.00,NE,45,4.0,7.0,44,0.00,,,-99.99,,2013-06-19 00:11:00,
2013-06-18 19:22:00,80.0,57.0,-100.00,ENE,65,4.0,7.0,45,0.00,,,-99.99,,2013-06-19 00:22:00,
2013-06-18 19:33:00,80.0,57.0,-100.00,ENE,65,4.0,9.0,46,0.00,,,-99.99,,2013-06-19 00:33:00,
2013-06-18 19:43:00,80.0,57.0,-100.00,ENE,65,4.0,9.0,46,0.00,,,-99.99,,2013-06-19 00:43:00,
2013-06-18 19:53:00,81.0,58.0,-100.00,East,85,6.0,11.0,45,0.00,,,-99.99,,2013-06-19 00:53:00,
2013-06-18 20:01:00,80.0,58.0,-100.00,East,90,7.0,10.0,47,0.00,,,-99.99,,2013-06-19 01:01:00,
2013-06-18 20:11:00,80.0,58.0,-100.00,East,95,6.0,11.0,47,0.00,,,-99.99,,2013-06-19 01:11:00,
2013-06-18 20:22:00,79.0,58.0,-100.00,East,80,5.0,11.0,47,0.00,,,-99.99,,2013-06-19 01:22:00,
2013-06-18 20:32:00,79.0,58.0,-100.00,East,85,4.0,7.0,48,0.00,,,-99.99,,2013-06-19 01:32:00,
2013-06-18 20:42:00,78.0,58.0,-100.00,East,95,3.0,7.0,49,0.00,,,-99.99,,2013-06-19 01:42:00,
2013-06-18 20:53:00,77.0,57.0,-100.00,East,100,4.0,9.0,49,0.00,,,-99.99,,2013-06-19 01:53:00,
2013-06-18 21:01:00,76.0,57.0,-100.00,ESE,110,5.0,6.0,52,0.00,,,-99.99,,2013-06-19 02:01:00,
2013-06-18 21:11:00,75.0,57.0,-100.00,East,100,3.0,7.0,54,0.00,,,-99.99,,2013-06-19 02:11:00,
2013-06-18 21:21:00,74.0,57.0,-100.00,East,100,4.0,7.0,56,0.00,,,-99.99,,2013-06-19 02:21:00,
2013-06-18 21:32:00,73.0,58.0,-100.00,East,95,4.0,7.0,58,0.00,,,-99.99,,2013-06-19 02:32:00,
2013-06-18 21:42:00,72.0,58.0,-100.00,East,100,4.0,7.0,60,0.00,,,-99.99,,2013-06-19 02:42:00,
2013-06-18 21:51:00,72.0,59.0,-100.00,SE,125,7.0,9.0,62,0.00,,,-99.99,,2013-06-19 02:51:00,
2013-06-18 22:01:00,72.0,59.0,-100.00,ESE,120,4.0,7.0,63,0.00,,,-99.99,,2013-06-19 03:01:00,
2013-06-18 22:11:00,71.0,59.0,-100.00,SE,125,6.0,6.0,66,0.00,,,-99.99,,2013-06-19 03:11:00,
2013-06-18 22:22:00,71.0,60.0,-100.00,ESE,115,5.0,6.0,67,0.00,,,-99.99,,2013-06-19 03:22:00,
2013-06-18 22:33:00,70.0,60.0,-100.00,ESE,110,4.0,6.0,69,0.00,,,-99.99,,2013-06-19 03:33:00,
2013-06-18 22:42:00,70.0,60.0,-100.00,ESE,105,4.0,6.0,71,0.00,,,-99.99,,2013-06-19 03:42:00,
2013-06-18 22:52:00,70.0,61.0,-100.00,East,85,4.0,6.0,72,0.00,,,-99.99,,2013-06-19 03:52:00,
2013-06-18 23:01:00,70.0,61.0,-100.00,East,90,5.0,7.0,72,0.00,,,-99.99,,2013-06-19 04:01:00,
2013-06-18 23:11:00,70.0,61.0,-100.00,East,90,5.0,7.0,72,0.00,,,-99.99,,2013-06-19 04:11:00,
2013-06-18 23:22:00,70.0,61.0,-100.00,East,100,4.0,6.0,74,0.00,,,-99.99,,2013-06-19 04:22:00,
2013-06-18 23:32:00,70.0,61.0,-100.00,East,100,4.0,6.0,74,0.00,,,-99.99,,2013-06-19 04:32:00,
2013-06-18 23:42:00,69.0,62.0,-100.00,ESE,105,4.0,6.0,78,0.00,,,-99.99,,2013-06-19 04:42:00,
2013-06-18 23:53:00,68.0,62.0,-100.00,ESE,120,5.0,7.0,79,0.00,,,-99.99,,2013-06-19 04:53:00,